Time;durP1;ratioP1;P1;durP2;ratioP2;P2;SDS_P1;SDS_P2;PMS_P1;PMS_P2;Temp;Humidity;BMP_temperature;BMP_pressure;BME280_temperature;BME280_humidity;BME280_pressure;Samples;Min_cycle;Max_cycle;Signal;HPM_P1;HPM_P2
2023/02/06 00:00:14;;;;;;;11.00;6.63;;;;;;;-4.75;56.83;94514.72;4990942;28;20416;-81
2023/02/06 00:02:40;;;;;;;8.57;6.70;;;;;;;-4.79;57.01;94521.31;4979804;28;20100;-81
2023/02/06 00:05:06;;;;;;;12.50;6.78;;;;;;;-4.59;56.51;94517.69;4989750;28;20082;-81
2023/02/06 00:07:31;;;;;;;10.13;6.88;;;;;;;-4.62;56.32;94520.69;4989478;28;20392;-82
2023/02/06 00:09:56;;;;;;;8.27;5.63;;;;;;;-4.60;56.16;94518.69;4991210;28;20053;-81
2023/02/06 00:12:22;;;;;;;9.45;6.63;;;;;;;-4.75;56.48;94520.69;4987909;28;20038;-81
2023/02/06 00:14:47;;;;;;;7.68;6.25;;;;;;;-5.15;56.33;94503.53;4990141;28;20042;-79
2023/02/06 00:17:12;;;;;;;9.65;5.43;;;;;;;-5.00;57.05;94538.66;4984831;28;20130;-81
2023/02/06 00:19:38;;;;;;;7.50;6.35;;;;;;;-5.00;57.52;94543.06;4984505;28;20039;-81
2023/02/06 00:22:03;;;;;;;8.77;6.43;;;;;;;-5.29;57.03;94491.56;4973914;28;20049;-79
2023/02/06 00:24:29;;;;;;;14.57;6.90;;;;;;;-5.03;57.34;94541.69;4989217;28;20027;-81
2023/02/06 00:26:54;;;;;;;10.25;7.00;;;;;;;-5.12;57.44;94524.69;4990508;28;20434;-82
2023/02/06 00:29:19;;;;;;;7.85;6.07;;;;;;;-5.05;56.81;94507.34;4990615;28;20499;-79
2023/02/06 00:31:45;;;;;;;10.38;7.13;;;;;;;-4.84;57.01;94547.88;4989674;28;20042;-79
2023/02/06 00:34:10;;;;;;;9.57;6.03;;;;;;;-4.85;56.76;94548.06;4988049;28;20650;-79
2023/02/06 00:36:36;;;;;;;11.38;6.68;;;;;;;-5.18;57.15;94515.13;4990810;28;20596;-79
2023/02/06 00:39:02;;;;;;;8.82;5.93;;;;;;;-4.80;57.30;94553.44;4989544;28;20052;-82
2023/02/06 00:41:27;;;;;;;8.20;6.10;;;;;;;-4.68;56.75;94549.22;4992051;28;20031;-79
2023/02/06 00:43:52;;;;;;;8.77;5.55;;;;;;;-4.79;56.98;94557.63;4989472;28;20108;-79
2023/02/06 00:46:19;;;;;;;8.00;6.50;;;;;;;-4.99;57.22;94516.13;4992879;28;20041;-79
2023/02/06 00:48:45;;;;;;;12.05;6.50;;;;;;;-4.86;57.06;94547.25;4987484;28;20034;-79
2023/02/06 00:51:10;;;;;;;8.43;6.43;;;;;;;-4.88;57.02;94546.66;4990520;28;20857;-81
2023/02/06 00:53:36;;;;;;;8.80;6.43;;;;;;;-4.81;57.28;94557.81;4987993;28;20037;-81
2023/02/06 00:56:01;;;;;;;8.02;5.55;;;;;;;-4.63;56.60;94565.00;4992345;28;20038;-79
2023/02/06 00:58:27;;;;;;;8.77;6.80;;;;;;;-4.62;56.63;94572.59;4992479;28;20021;-79
2023/02/06 01:00:53;;;;;;;6.63;5.65;;;;;;;-4.59;56.27;94567.03;4992451;28;20125;-79
2023/02/06 01:03:18;;;;;;;8.15;5.35;;;;;;;-4.74;56.14;94543.06;4994097;28;20137;-80
2023/02/06 01:05:43;;;;;;;5.93;5.20;;;;;;;-4.67;56.36;94567.22;4993033;28;20123;-81
2023/02/06 01:08:09;;;;;;;7.50;5.35;;;;;;;-4.67;56.49;94566.41;4992120;28;20118;-81
2023/02/06 01:10:34;;;;;;;6.85;6.15;;;;;;;-4.97;55.98;94501.13;4989619;28;20050;-80
2023/02/06 01:12:59;;;;;;;6.35;5.00;;;;;;;-4.52;55.58;94573.00;4992561;28;20022;-80
2023/02/06 01:15:25;;;;;;;9.13;5.50;;;;;;;-4.61;55.14;94557.81;4991209;28;20046;-82
2023/02/06 01:17:50;;;;;;;9.05;5.78;;;;;;;-4.65;55.63;94567.00;4994549;28;20062;-81
2023/02/06 01:20:16;;;;;;;8.52;5.55;;;;;;;-4.59;55.40;94579.19;4995263;28;20046;-82
2023/02/06 01:22:41;;;;;;;9.60;6.10;;;;;;;-4.70;55.79;94578.00;4997521;28;20081;-80
2023/02/06 01:25:07;;;;;;;9.95;6.20;;;;;;;-4.82;55.38;94552.81;4994336;28;20054;-82
2023/02/06 01:27:36;;;;;;;10.38;6.32;;;;;;;-4.72;55.38;94556.63;4993796;28;20607;-80
2023/02/06 01:30:04;;;;;;;11.40;6.35;;;;;;;-4.57;54.99;94575.38;5003544;28;20050;-80
2023/02/06 01:32:30;;;;;;;10.38;7.10;;;;;;;-4.62;55.10;94572.59;4994036;28;20050;-83
2023/02/06 01:34:55;;;;;;;9.73;6.38;;;;;;;-4.64;55.48;94573.81;4994772;28;20042;-82
2023/02/06 01:37:20;;;;;;;8.43;5.97;;;;;;;-4.71;54.84;94536.66;4993151;28;20050;-81
2023/02/06 01:39:46;;;;;;;8.52;5.75;;;;;;;-4.68;54.65;94534.44;4993703;28;20031;-81
2023/02/06 01:42:11;;;;;;;8.43;6.07;;;;;;;-4.55;53.92;94547.44;4994518;28;20058;-81
2023/02/06 01:44:37;;;;;;;9.65;6.07;;;;;;;-4.25;53.27;94580.75;4995957;28;20046;-81
2023/02/06 01:47:02;;;;;;;7.25;5.00;;;;;;;-4.30;52.72;94573.56;4992334;28;20696;-82
2023/02/06 01:49:34;;;;;;;9.00;4.25;;;;;;;-4.20;52.55;94586.94;4994773;28;20059;-79
2023/02/06 01:52:17;;;;;;;7.22;4.72;;;;;;;-4.31;52.67;94597.94;5002749;28;20030;-81
2023/02/06 01:54:47;;;;;;;7.60;4.93;;;;;;;-4.21;52.54;94594.91;5002011;28;20150;-79
2023/02/06 01:57:14;;;;;;;7.07;4.88;;;;;;;-4.34;52.41;94587.94;4992558;28;20034;-80
2023/02/06 01:59:44;;;;;;;6.55;4.80;;;;;;;-4.43;52.61;94582.16;4994669;28;20046;-82
2023/02/06 02:02:10;;;;;;;6.05;4.25;;;;;;;-4.50;52.21;94560.63;4993024;28;20042;-80
2023/02/06 02:04:36;;;;;;;6.47;4.65;;;;;;;-4.38;52.39;94583.34;4992061;28;20044;-80
2023/02/06 02:07:11;;;;;;;5.13;4.63;;;;;;;-4.28;52.18;94578.53;4991758;28;20535;-79
2023/02/06 02:09:36;;;;;;;9.25;4.72;;;;;;;-4.24;51.60;94585.72;4990620;28;20045;-79
2023/02/06 02:12:02;;;;;;;5.55;4.53;;;;;;;-4.27;51.63;94575.75;4992510;28;20029;-81
2023/02/06 02:14:29;;;;;;;7.15;3.83;;;;;;;-4.25;51.85;94584.16;4992142;28;20037;-79
2023/02/06 02:17:17;;;;;;;7.13;5.30;;;;;;;-4.21;51.44;94581.94;4991282;28;20045;-81
2023/02/06 02:20:01;;;;;;;6.35;4.90;;;;;;;-4.36;51.62;94589.94;4985452;28;20531;-80
2023/02/06 02:22:48;;;;;;;5.40;4.28;;;;;;;-4.29;51.54;94597.75;5000269;28;20037;-79
2023/02/06 02:25:17;;;;;;;6.95;4.57;;;;;;;-4.32;51.67;94587.75;4990587;28;20098;-79
2023/02/06 02:28:10;;;;;;;5.47;4.60;;;;;;;-4.32;52.42;94582.53;4986866;28;20034;-79
2023/02/06 02:30:51;;;;;;;6.20;4.72;;;;;;;-4.48;53.48;94594.94;4988444;28;20535;-79
2023/02/06 02:33:34;;;;;;;5.22;4.72;;;;;;;-4.65;54.11;94578.19;4991579;28;20034;-81
2023/02/06 02:36:25;;;;;;;6.90;4.97;;;;;;;-4.69;54.30;94602.97;4990534;28;20041;-80
2023/02/06 02:39:02;;;;;;;7.03;5.50;;;;;;;-4.52;54.23;94598.16;5005719;28;20038;-80
2023/02/06 02:41:46;;;;;;;7.70;5.28;;;;;;;-4.49;53.39;94602.97;4990607;28;20036;-81
2023/02/06 02:44:26;;;;;;;7.13;5.13;;;;;;;-4.70;54.08;94592.78;4983162;28;20101;-79
2023/02/06 02:46:56;;;;;;;9.65;5.65;;;;;;;-4.36;52.92;94579.56;4985745;28;20481;-80
2023/02/06 02:49:25;;;;;;;10.07;6.03;;;;;;;-4.19;52.49;94604.09;4985404;28;20045;-79
2023/02/06 02:51:52;;;;;;;7.10;5.30;;;;;;;-4.56;53.06;94602.94;4985931;28;20040;-80
2023/02/06 02:54:18;;;;;;;5.53;4.78;;;;;;;-4.17;51.70;94601.31;4983416;28;20025;-80
2023/02/06 02:56:43;;;;;;;6.68;4.68;;;;;;;-4.22;51.07;94570.75;4983691;28;20041;-79
2023/02/06 02:59:34;;;;;;;8.60;5.72;;;;;;;-4.41;50.46;94591.56;4987521;28;20427;-80
2023/02/06 03:02:08;;;;;;;5.53;4.88;;;;;;;-4.68;50.64;94601.13;4988294;28;20045;-80
2023/02/06 03:04:43;;;;;;;8.23;6.20;;;;;;;-4.94;51.51;94609.72;4989714;28;20041;-79
2023/02/06 03:07:27;;;;;;;9.10;5.13;;;;;;;-4.49;50.83;94619.31;4998201;28;20034;-80
2023/02/06 03:09:59;;;;;;;6.95;5.82;;;;;;;-4.47;50.70;94612.13;4988120;28;20394;-78
2023/02/06 03:12:34;;;;;;;8.45;5.20;;;;;;;-4.50;51.62;94625.53;4990174;28;20137;-80
2023/02/06 03:15:22;;;;;;;5.85;5.22;;;;;;;-4.54;51.21;94584.59;4987655;28;20038;-81
2023/02/06 03:18:01;;;;;;;7.25;5.15;;;;;;;-4.26;50.84;94612.91;4992839;28;20374;-78
2023/02/06 03:20:29;;;;;;;7.60;5.15;;;;;;;-4.58;51.10;94610.13;4991103;28;20034;-80
2023/02/06 03:22:56;;;;;;;7.28;5.80;;;;;;;-4.83;50.99;94611.72;4987288;28;20030;-79
2023/02/06 03:25:32;;;;;;;8.30;5.75;;;;;;;-4.45;50.78;94604.16;4987239;28;20120;-80
2023/02/06 03:27:59;;;;;;;6.40;5.05;;;;;;;-4.19;50.43;94613.69;4990749;28;20023;-79
2023/02/06 03:30:28;;;;;;;8.15;5.90;;;;;;;-4.44;50.94;94596.13;4987283;28;20112;-80
2023/02/06 03:33:01;;;;;;;6.93;5.13;;;;;;;-4.48;50.57;94579.38;4987029;28;20107;-79
2023/02/06 03:35:33;;;;;;;6.88;5.20;;;;;;;-4.39;50.54;94587.75;4996956;28;20034;-80
2023/02/06 03:37:59;;;;;;;7.82;5.80;;;;;;;-4.22;50.37;94625.28;4988267;28;20508;-80
2023/02/06 03:40:27;;;;;;;8.90;5.93;;;;;;;-4.11;49.39;94621.28;4988810;28;20034;-80
2023/02/06 03:42:57;;;;;;;7.40;5.88;;;;;;;-3.96;49.38;94618.47;4989945;28;20022;-80
2023/02/06 03:45:29;;;;;;;7.90;5.95;;;;;;;-4.19;49.02;94614.50;4989846;28;20104;-80
2023/02/06 03:47:59;;;;;;;11.65;6.32;;;;;;;-5.02;49.00;94573.56;4987303;28;20030;-80
2023/02/06 03:50:26;;;;;;;9.45;7.03;;;;;;;-4.64;49.79;94629.13;4990440;28;20118;-79
2023/02/06 03:52:55;;;;;;;8.30;6.05;;;;;;;-4.72;50.26;94620.72;4987018;28;20105;-80
2023/02/06 03:55:23;;;;;;;6.15;4.65;;;;;;;-4.29;49.02;94608.13;4988706;28;20084;-80
2023/02/06 03:58:05;;;;;;;7.28;5.13;;;;;;;-4.37;47.71;94609.13;4986183;28;20805;-79
2023/02/06 04:00:32;;;;;;;8.48;5.10;;;;;;;-4.51;48.46;94615.31;4982071;28;20038;-79
2023/02/06 04:02:58;;;;;;;7.32;5.00;;;;;;;-4.47;48.69;94616.53;4988636;28;20058;-81
2023/02/06 04:05:24;;;;;;;7.50;4.90;;;;;;;-4.45;48.98;94624.91;4989037;28;20046;-79
2023/02/06 04:07:51;;;;;;;7.15;5.30;;;;;;;-4.60;48.92;94581.00;4988567;28;20057;-80
2023/02/06 04:10:17;;;;;;;6.60;5.15;;;;;;;-4.31;47.61;94594.53;4990233;28;20029;-79
2023/02/06 04:12:42;;;;;;;6.85;5.35;;;;;;;-4.09;47.95;94614.88;4991437;28;20374;-79
2023/02/06 04:15:08;;;;;;;7.03;5.57;;;;;;;-4.17;48.41;94628.09;4988410;28;20291;-79
2023/02/06 04:17:34;;;;;;;8.52;5.88;;;;;;;-4.35;48.66;94614.13;4988731;28;20042;-80
2023/02/06 04:19:59;;;;;;;8.50;5.43;;;;;;;-4.45;48.64;94615.34;4988515;28;20038;-79
2023/02/06 04:22:24;;;;;;;7.28;5.57;;;;;;;-4.30;48.10;94622.91;4991196;28;20026;-80
2023/02/06 04:24:50;;;;;;;7.88;5.45;;;;;;;-4.24;48.36;94619.50;4987701;28;20030;-81
2023/02/06 04:27:16;;;;;;;8.45;5.30;;;;;;;-4.52;47.58;94614.53;4990395;28;20062;-78
2023/02/06 04:29:42;;;;;;;7.88;5.45;;;;;;;-5.24;48.73;94598.91;4992205;28;20050;-80
2023/02/06 04:32:07;;;;;;;10.98;7.72;;;;;;;-6.64;51.73;94639.03;4992260;28;20122;-79
2023/02/06 04:34:34;;;;;;;13.10;9.32;;;;;;;-6.06;51.54;94630.09;4991464;28;20045;-80
2023/02/06 04:37:00;;;;;;;11.98;7.30;;;;;;;-6.57;52.34;94616.59;5000621;28;20050;-81
2023/02/06 04:39:26;;;;;;;13.50;8.02;;;;;;;-6.29;52.29;94619.97;4990785;28;20543;-79
2023/02/06 04:41:51;;;;;;;8.93;7.30;;;;;;;-6.81;54.86;94609.25;4988925;28;20489;-79
2023/02/06 04:44:17;;;;;;;14.65;10.05;;;;;;;-5.89;53.72;94630.56;4990999;28;20041;-79
2023/02/06 04:46:43;;;;;;;12.95;8.65;;;;;;;-5.94;53.59;94632.91;4992675;28;20085;-79
2023/02/06 04:49:09;;;;;;;8.25;6.47;;;;;;;-6.26;54.90;94635.13;4991597;28;20091;-80
2023/02/06 04:51:35;;;;;;;13.50;11.02;;;;;;;-5.85;54.21;94644.72;4990010;28;20038;-79
2023/02/06 04:54:01;;;;;;;11.73;9.30;;;;;;;-5.27;53.39;94655.56;4991582;28;20034;-80
2023/02/06 04:56:27;;;;;;;13.40;9.15;;;;;;;-5.21;51.83;94652.94;4990646;28;20034;-79
2023/02/06 04:58:52;;;;;;;10.98;7.25;;;;;;;-5.20;51.21;94612.25;4999834;28;20089;-81
2023/02/06 05:01:19;;;;;;;9.98;6.35;;;;;;;-4.71;51.34;94656.06;4998286;28;20033;-80
2023/02/06 05:03:44;;;;;;;12.23;6.75;;;;;;;-4.63;51.21;94650.66;4991236;28;20129;-80
2023/02/06 05:06:10;;;;;;;8.32;7.00;;;;;;;-4.58;50.24;94661.25;4992077;28;20061;-79
2023/02/06 05:08:36;;;;;;;9.98;6.45;;;;;;;-4.72;49.87;94639.69;4987510;28;20149;-79
2023/02/06 05:11:01;;;;;;;8.82;6.40;;;;;;;-4.57;49.26;94647.28;4991344;28;20508;-80
2023/02/06 05:13:27;;;;;;;9.95;6.22;;;;;;;-4.72;49.30;94660.44;4992234;28;20104;-79
2023/02/06 05:15:52;;;;;;;7.68;5.90;;;;;;;-4.52;49.29;94666.44;4992365;28;20033;-80
2023/02/06 05:18:17;;;;;;;9.35;6.75;;;;;;;-4.33;48.55;94669.25;4990985;28;20110;-80
2023/02/06 05:20:43;;;;;;;14.88;9.85;;;;;;;-4.46;48.45;94672.66;4999122;28;20045;-79
2023/02/06 05:23:09;;;;;;;12.13;7.85;;;;;;;-4.81;49.25;94658.22;4991376;28;20235;-81
2023/02/06 05:25:35;;;;;;;9.27;6.65;;;;;;;-4.74;49.09;94688.41;4990761;28;20145;-80
2023/02/06 05:28:05;;;;;;;12.52;8.25;;;;;;;-4.72;48.95;94680.41;4991012;28;20030;-80
2023/02/06 05:30:31;;;;;;;19.42;10.98;;;;;;;-4.73;49.17;94686.63;4991539;28;20030;-80
2023/02/06 05:32:57;;;;;;;19.45;13.85;;;;;;;-4.81;48.80;94666.81;4991908;28;20049;-80
2023/02/06 05:35:23;;;;;;;19.70;13.02;;;;;;;-4.71;48.73;94676.81;4988849;28;20588;-80
2023/02/06 05:37:48;;;;;;;21.55;12.98;;;;;;;-4.74;48.82;94693.59;4989804;28;20042;-79
2023/02/06 05:40:14;;;;;;;17.45;10.50;;;;;;;-4.75;48.21;94692.00;4989453;28;20136;-80
2023/02/06 05:42:40;;;;;;;18.15;12.35;;;;;;;-4.84;48.57;94687.19;4988765;28;20018;-80
2023/02/06 05:45:06;;;;;;;18.75;12.68;;;;;;;-5.02;48.84;94678.16;4989727;28;20046;-80
2023/02/06 05:47:31;;;;;;;17.15;11.50;;;;;;;-4.93;48.08;94696.94;4990303;28;20049;-80
2023/02/06 05:49:56;;;;;;;17.35;11.50;;;;;;;-4.99;48.46;94669.19;4993218;28;20034;-79
2023/02/06 05:52:22;;;;;;;16.30;11.48;;;;;;;-4.68;48.32;94708.38;4990571;28;20030;-80
2023/02/06 05:54:47;;;;;;;12.57;8.90;;;;;;;-4.74;47.97;94698.78;4989092;28;20468;-80
2023/02/06 05:57:12;;;;;;;23.80;16.00;;;;;;;-4.69;48.48;94713.78;4988799;28;21068;-80
2023/02/06 05:59:38;;;;;;;18.80;12.68;;;;;;;-4.65;48.10;94718.38;4986016;28;20048;-80
2023/02/06 06:02:05;;;;;;;17.33;11.20;;;;;;;-4.73;48.15;94715.94;4991527;28;20034;-81
2023/02/06 06:04:30;;;;;;;13.60;10.80;;;;;;;-4.57;48.10;94725.97;4990785;28;20373;-80
2023/02/06 06:06:56;;;;;;;14.90;11.15;;;;;;;-4.92;48.69;94701.13;4989906;28;20037;-80
2023/02/06 06:09:21;;;;;;;12.02;7.80;;;;;;;-4.72;48.77;94717.53;4989736;28;20034;-80
2023/02/06 06:11:47;;;;;;;13.82;9.07;;;;;;;-4.89;48.29;94688.56;4988905;28;20413;-80
2023/02/06 06:14:12;;;;;;;12.43;8.50;;;;;;;-4.72;47.27;94696.78;4991199;28;20507;-80
2023/02/06 06:16:39;;;;;;;13.30;9.55;;;;;;;-4.59;47.38;94703.81;4990802;28;20042;-80
2023/02/06 06:19:05;;;;;;;11.45;8.20;;;;;;;-4.56;47.02;94719.78;4992076;28;20029;-80
2023/02/06 06:21:31;;;;;;;14.00;7.85;;;;;;;-4.96;48.00;94708.50;4990526;28;20117;-79
2023/02/06 06:23:56;;;;;;;12.20;8.40;;;;;;;-4.65;46.84;94728.75;4992106;28;20022;-79
2023/02/06 06:26:22;;;;;;;12.93;8.48;;;;;;;-4.60;47.15;94725.56;4990575;28;20030;-81
2023/02/06 06:28:47;;;;;;;14.05;8.50;;;;;;;-4.75;47.53;94707.56;4987256;28;20050;-80
2023/02/06 06:31:13;;;;;;;10.45;7.45;;;;;;;-4.64;47.63;94709.59;4991662;28;20373;-82
2023/02/06 06:33:40;;;;;;;12.63;9.40;;;;;;;-4.44;47.63;94720.78;4970856;28;20034;-79
2023/02/06 06:36:07;;;;;;;11.75;8.00;;;;;;;-4.52;47.93;94718.38;4979744;28;20118;-79
2023/02/06 06:38:32;;;;;;;9.75;7.78;;;;;;;-4.79;47.37;94683.00;4970380;28;20528;-80
2023/02/06 06:40:58;;;;;;;11.43;7.10;;;;;;;-5.00;47.94;94658.00;4975908;28;20496;-79
2023/02/06 06:43:25;;;;;;;13.38;8.38;;;;;;;-4.49;47.25;94725.00;4988520;28;20050;-79
2023/02/06 06:45:50;;;;;;;13.93;9.18;;;;;;;-4.33;46.81;94731.56;4980328;28;20112;-80
2023/02/06 06:48:16;;;;;;;10.95;7.78;;;;;;;-4.46;47.19;94722.00;4989000;28;20040;-79
2023/02/06 06:50:41;;;;;;;9.88;7.85;;;;;;;-4.25;46.39;94744.38;4989279;28;20061;-79
2023/02/06 06:53:07;;;;;;;11.23;8.40;;;;;;;-4.29;46.37;94748.38;4991748;28;20061;-78
2023/02/06 06:55:32;;;;;;;11.40;9.18;;;;;;;-4.23;46.37;94748.38;4990014;28;20378;-80
2023/02/06 06:57:58;;;;;;;13.30;8.93;;;;;;;-4.49;46.00;94720.56;4992903;28;20544;-79
2023/02/06 07:00:24;;;;;;;13.75;9.25;;;;;;;-4.32;45.61;94717.59;4992668;28;20480;-79
2023/02/06 07:02:49;;;;;;;10.23;7.35;;;;;;;-4.07;44.77;94737.59;4989914;28;20121;-79
2023/02/06 07:05:14;;;;;;;10.02;7.50;;;;;;;-5.93;47.50;94753.69;4980626;28;20124;-79
2023/02/06 07:07:40;;;;;;;9.40;6.43;;;;;;;-5.47;47.83;94752.19;4979539;28;20054;-78
2023/02/06 07:10:06;;;;;;;8.85;6.45;;;;;;;-5.06;47.30;94731.41;4987574;28;20030;-79
2023/02/06 07:12:33;;;;;;;9.80;6.20;;;;;;;-4.52;45.29;94741.75;4980268;28;20461;-80
2023/02/06 07:14:58;;;;;;;8.27;6.00;;;;;;;-4.56;45.16;94732.75;4980629;28;20592;-79
2023/02/06 07:17:24;;;;;;;12.15;7.07;;;;;;;-4.77;44.36;94730.31;4979655;28;20046;-79
2023/02/06 07:19:50;;;;;;;9.52;6.43;;;;;;;-4.47;45.08;94773.13;4983425;28;21005;-81
2023/02/06 07:22:15;;;;;;;9.25;6.43;;;;;;;-4.61;45.93;94750.72;4983236;28;20030;-79
2023/02/06 07:24:41;;;;;;;8.30;6.60;;;;;;;-4.49;45.62;94769.91;4981512;28;20041;-80
2023/02/06 07:27:06;;;;;;;6.97;5.80;;;;;;;-4.57;45.58;94743.34;4987542;28;20045;-80
2023/02/06 07:29:32;;;;;;;9.63;6.88;;;;;;;-4.25;45.66;94757.38;4985090;28;20357;-80
2023/02/06 07:31:57;;;;;;;10.82;7.57;;;;;;;-5.99;48.56;94754.44;4985607;28;20049;-79
2023/02/06 07:34:23;;;;;;;10.65;6.93;;;;;;;-5.32;48.18;94742.47;4983973;28;20034;-81
2023/02/06 07:36:48;;;;;;;14.75;12.45;;;;;;;-4.81;46.87;94780.22;4982991;28;20622;-81
2023/02/06 07:39:14;;;;;;;7.65;6.53;;;;;;;-5.28;46.59;94779.22;4982032;28;20049;-81
2023/02/06 07:41:39;;;;;;;10.20;6.85;;;;;;;-5.93;49.22;94780.38;4981508;28;20049;-81
2023/02/06 07:44:05;;;;;;;11.30;6.93;;;;;;;-5.69;48.99;94721.34;4981301;28;20046;-79
2023/02/06 07:46:32;;;;;;;11.90;8.75;;;;;;;-5.27;48.75;94790.41;4983435;28;20034;-80
2023/02/06 07:48:57;;;;;;;14.18;9.45;;;;;;;-5.43;47.72;94760.38;4982081;28;20022;-80
2023/02/06 07:51:23;;;;;;;9.30;6.97;;;;;;;-5.33;48.59;94792.75;4981741;28;20193;-80
2023/02/06 07:53:48;;;;;;;14.02;7.72;;;;;;;-4.97;48.23;94791.72;4982087;28;20025;-79
2023/02/06 07:56:17;;;;;;;12.98;7.78;;;;;;;-4.98;48.75;94783.13;4984261;28;20050;-80
2023/02/06 07:58:43;;;;;;;10.50;7.68;;;;;;;-5.48;48.62;94788.69;4996605;28;20097;-80
2023/02/06 08:01:09;;;;;;;14.90;8.50;;;;;;;-6.02;48.98;94771.16;4979301;28;20036;-79
2023/02/06 08:03:35;;;;;;;12.88;9.32;;;;;;;-5.37;48.67;94783.75;4983582;28;20026;-80
2023/02/06 08:06:05;;;;;;;12.43;8.60;;;;;;;-5.53;49.49;94775.47;4980499;28;20045;-79
2023/02/06 08:08:31;;;;;;;10.38;7.90;;;;;;;-5.10;49.07;94781.28;4981736;28;20038;-80
2023/02/06 08:10:56;;;;;;;18.38;13.35;;;;;;;-5.49;49.21;94777.50;4983781;28;20041;-80
2023/02/06 08:13:21;;;;;;;12.15;9.45;;;;;;;-5.75;49.92;94761.78;4984997;28;20026;-80
2023/02/06 08:15:47;;;;;;;13.82;8.32;;;;;;;-5.23;48.86;94760.50;4986543;28;20042;-79
2023/02/06 08:18:12;;;;;;;10.27;8.30;;;;;;;-4.84;48.27;94794.38;4986503;28;20041;-80
2023/02/06 08:20:38;;;;;;;10.10;7.80;;;;;;;-4.93;48.74;94798.91;4984246;28;20041;-80
2023/02/06 08:23:03;;;;;;;17.58;10.25;;;;;;;-5.28;49.71;94794.78;4980220;28;20043;-79
2023/02/06 08:25:29;;;;;;;11.45;8.20;;;;;;;-5.06;47.95;94800.66;4982549;28;20064;-80
2023/02/06 08:27:54;;;;;;;11.07;8.90;;;;;;;-4.97;47.44;94717.28;4981898;28;20023;-79
2023/02/06 08:30:21;;;;;;;15.20;9.27;;;;;;;-4.23;47.80;94784.75;4974895;28;20105;-81
2023/02/06 08:32:46;;;;;;;15.32;9.18;;;;;;;-4.69;46.66;94763.88;4980040;28;20038;-80
2023/02/06 08:35:12;;;;;;;13.73;9.73;;;;;;;-5.14;48.04;94786.06;4981162;28;20643;-80
2023/02/06 08:37:37;;;;;;;9.35;7.50;;;;;;;-5.21;46.92;94763.66;4986193;28;20046;-80
2023/02/06 08:40:03;;;;;;;16.42;14.18;;;;;;;-4.55;46.76;94795.88;4985641;28;20168;-81
2023/02/06 08:42:29;;;;;;;13.88;8.95;;;;;;;-5.48;48.68;94807.63;4983415;28;20089;-79
2023/02/06 08:44:54;;;;;;;12.73;8.20;;;;;;;-5.01;48.03;94795.69;4984319;28;20034;-80
2023/02/06 08:47:20;;;;;;;13.88;8.02;;;;;;;-5.48;48.49;94779.09;4985067;28;20073;-80
2023/02/06 08:49:48;;;;;;;11.85;8.93;;;;;;;-5.40;49.01;94806.66;4985728;28;20048;-79
2023/02/06 08:52:14;;;;;;;13.20;8.60;;;;;;;-5.89;49.07;94767.84;4986375;28;20026;-79
2023/02/06 08:54:39;;;;;;;12.35;7.57;;;;;;;-5.52;48.20;94777.09;4984557;28;20057;-79
2023/02/06 08:57:05;;;;;;;11.65;8.38;;;;;;;-5.44;48.02;94767.34;4984035;28;20062;-80
2023/02/06 08:59:31;;;;;;;13.23;10.23;;;;;;;-4.78;47.86;94816.94;4980678;28;20069;-81
2023/02/06 09:01:56;;;;;;;11.32;7.55;;;;;;;-4.29;46.56;94805.53;4979845;28;20121;-80
2023/02/06 09:04:21;;;;;;;11.68;6.40;;;;;;;-4.06;46.12;94811.97;4983216;28;20036;-81
2023/02/06 09:06:47;;;;;;;10.48;8.20;;;;;;;-4.11;46.35;94810.94;4983970;28;20030;-81
2023/02/06 09:09:14;;;;;;;12.88;8.52;;;;;;;-4.19;47.32;94801.53;4985522;28;20061;-81
2023/02/06 09:11:40;;;;;;;13.48;8.40;;;;;;;-4.71;48.65;94806.59;4984430;28;20037;-79
2023/02/06 09:14:07;;;;;;;13.10;8.77;;;;;;;-4.62;48.64;94798.44;4985682;28;20954;-80
2023/02/06 09:16:33;;;;;;;14.85;9.10;;;;;;;-5.44;49.52;94816.63;4981788;28;20066;-79
2023/02/06 09:19:00;;;;;;;13.38;8.85;;;;;;;-5.96;50.81;94818.81;4984496;28;20065;-79
2023/02/06 09:21:28;;;;;;;11.48;9.27;;;;;;;-5.67;50.52;94784.97;4981696;28;20103;-80
2023/02/06 09:23:57;;;;;;;15.27;8.88;;;;;;;-5.56;50.49;94768.88;4973094;28;20062;-80
2023/02/06 09:26:26;;;;;;;12.32;9.15;;;;;;;-5.91;50.51;94803.53;4975958;28;20033;-80
2023/02/06 09:28:59;;;;;;;13.88;9.55;;;;;;;-5.78;51.67;94803.63;4983312;28;20683;-81
2023/02/06 09:31:25;;;;;;;14.38;11.13;;;;;;;-5.41;50.26;94769.56;4985805;28;20496;-80
2023/02/06 09:33:51;;;;;;;10.45;7.68;;;;;;;-5.19;49.95;94787.63;4985829;28;20072;-80
2023/02/06 09:36:19;;;;;;;10.98;8.07;;;;;;;-5.48;50.28;94812.00;4987330;28;20058;-80
2023/02/06 09:38:47;;;;;;;12.25;7.70;;;;;;;-5.24;50.08;94814.16;4986439;28;20420;-80
2023/02/06 09:41:15;;;;;;;11.02;8.10;;;;;;;-4.66;49.84;94805.03;4987483;28;20030;-81
2023/02/06 09:43:49;;;;;;;12.32;7.15;;;;;;;-4.82;49.24;94779.41;4983803;28;20057;-80
2023/02/06 09:46:20;;;;;;;10.82;6.50;;;;;;;-4.78;48.21;94798.78;4989737;28;20030;-80
2023/02/06 09:48:47;;;;;;;9.35;6.72;;;;;;;-5.61;49.95;94778.22;4986574;28;20105;-79
2023/02/06 09:51:39;;;;;;;11.30;6.43;;;;;;;-6.30;51.90;94786.63;4988462;28;20038;-80
2023/02/06 09:54:10;;;;;;;8.55;5.90;;;;;;;-5.95;52.14;94792.72;4981421;28;20038;-81
2023/02/06 09:56:42;;;;;;;7.63;6.63;;;;;;;-5.95;50.69;94771.19;4985802;28;20042;-80
2023/02/06 09:59:13;;;;;;;8.48;5.55;;;;;;;-5.61;50.91;94801.56;4987167;28;20120;-79
2023/02/06 10:01:46;;;;;;;10.13;6.10;;;;;;;-5.79;51.05;94781.28;4984239;28;20144;-80
2023/02/06 10:04:30;;;;;;;7.97;5.47;;;;;;;-6.32;51.16;94791.22;4985847;28;20068;-79
2023/02/06 10:07:23;;;;;;;9.05;5.95;;;;;;;-6.89;52.79;94730.94;4983834;28;20046;-80
2023/02/06 10:09:54;;;;;;;9.93;7.10;;;;;;;-6.55;53.42;94758.75;4986970;28;20111;-80
2023/02/06 10:12:33;;;;;;;9.80;6.03;;;;;;;-6.31;53.10;94782.47;4984443;28;20037;-79
2023/02/06 10:15:12;;;;;;;8.57;6.25;;;;;;;-6.69;52.92;94750.06;4985907;28;20034;-80
2023/02/06 10:17:51;;;;;;;10.30;6.53;;;;;;;-6.33;52.78;94778.44;4983955;28;20034;-81
2023/02/06 10:20:35;;;;;;;8.77;5.70;;;;;;;-5.97;52.18;94768.00;4988022;28;20038;-79
2023/02/06 10:23:25;;;;;;;15.98;11.93;;;;;;;-5.47;51.72;94754.00;4982000;28;20101;-80
2023/02/06 10:26:11;;;;;;;6.70;5.10;;;;;;;-5.83;50.38;94723.88;4981161;28;20092;-80
2023/02/06 10:28:39;;;;;;;;;;;;;;;-5.68;50.80;94770.41;4988447;28;20694;-81
2023/02/06 10:31:13;;;;;;;8.82;5.60;;;;;;;-5.92;51.85;94763.06;4980532;28;19957;-80
2023/02/06 10:34:06;;;;;;;8.98;6.10;;;;;;;-5.93;51.80;94758.88;4989057;28;20080;-79
2023/02/06 10:36:59;;;;;;;12.30;7.18;;;;;;;-6.02;52.50;94754.81;4989682;28;20056;-80
2023/02/06 10:39:59;;;;;;;7.93;5.78;;;;;;;-6.49;52.55;94681.16;4981407;28;20089;-80
2023/02/06 10:42:27;;;;;;;6.95;5.35;;;;;;;-5.89;52.75;94754.91;4990972;28;20049;-81
2023/02/06 10:45:24;;;;;;;8.45;5.97;;;;;;;-5.74;51.53;94753.00;4985676;28;20038;-79
2023/02/06 10:47:55;;;;;;;6.75;4.88;;;;;;;-5.49;50.89;94753.38;4985061;28;20048;-79
2023/02/06 10:50:52;;;;;;;9.48;6.32;;;;;;;-5.43;50.77;94691.19;4980365;28;20327;-80
2023/02/06 10:53:24;;;;;;;9.48;6.20;;;;;;;-5.38;50.01;94748.44;4982494;28;20026;-80
2023/02/06 10:55:58;;;;;;;11.00;6.80;;;;;;;-5.68;50.89;94741.91;4983037;28;20081;-80
2023/02/06 10:58:31;;;;;;;9.00;6.72;;;;;;;-5.52;50.19;94739.00;4981493;28;20125;-80
2023/02/06 11:00:58;;;;;;;10.20;6.70;;;;;;;-5.93;51.22;94720.00;4985608;28;20109;-79
2023/02/06 11:03:29;;;;;;;9.75;6.70;;;;;;;-5.86;51.74;94723.47;4984972;28;20041;-80
2023/02/06 11:05:55;;;;;;;10.88;6.50;;;;;;;-5.96;51.32;94738.53;4987009;28;20033;-80
2023/02/06 11:08:32;;;;;;;10.90;7.03;;;;;;;-6.10;51.26;94747.97;4983270;28;20125;-81
2023/02/06 11:11:16;;;;;;;10.13;6.47;;;;;;;-6.11;51.73;94746.38;4986563;28;20050;-80
2023/02/06 11:13:42;;;;;;;9.20;6.10;;;;;;;-6.05;51.57;94739.66;4986962;28;20038;-80
2023/02/06 11:16:11;;;;;;;8.05;5.82;;;;;;;-6.31;52.47;94754.00;4985646;28;20121;-79
2023/02/06 11:18:40;;;;;;;9.43;6.07;;;;;;;-6.37;52.53;94757.31;4985179;28;20552;-80
2023/02/06 11:21:11;;;;;;;9.25;5.88;;;;;;;-6.05;52.54;94766.34;4990208;28;20125;-80
2023/02/06 11:23:37;;;;;;;8.85;7.00;;;;;;;-6.38;52.41;94745.34;4985245;28;20686;-80
2023/02/06 11:26:16;;;;;;;11.30;7.30;;;;;;;-6.49;53.17;94760.59;5005633;28;20066;-82
2023/02/06 11:28:54;;;;;;;9.38;5.60;;;;;;;-6.37;52.65;94757.31;4989171;28;20121;-81
2023/02/06 11:31:38;;;;;;;8.45;5.95;;;;;;;-6.39;52.51;94759.28;4985518;28;20412;-79
2023/02/06 11:34:04;;;;;;;8.73;5.97;;;;;;;-6.40;52.50;94742.16;4988315;28;20020;-79
2023/02/06 11:36:36;;;;;;;11.25;5.80;;;;;;;-6.53;52.92;94749.78;4986977;28;20054;-81